createdAt,value
2024-05-09T00:00:40.371Z,7.59
2024-05-09T00:03:28.267Z,7.51
2024-05-09T00:05:55.705Z,7.45
2024-05-09T00:08:22.790Z,7.39
2024-05-09T00:10:50.069Z,7.34
2024-05-09T00:13:16.970Z,7.31
2024-05-09T00:15:44.161Z,7.25
2024-05-09T00:18:11.188Z,7.15
2024-05-09T00:20:40.850Z,7.11
2024-05-09T00:23:10.691Z,7.06
2024-05-09T00:25:38.657Z,6.95
2024-05-09T00:28:06.158Z,6.86
2024-05-09T00:30:36.054Z,6.83
2024-05-09T00:33:06.265Z,6.77
2024-05-09T00:35:34.905Z,6.71
2024-05-09T00:38:02.076Z,6.70
2024-05-09T00:40:40.987Z,6.64
2024-05-09T00:43:14.505Z,6.59
2024-05-09T00:45:43.193Z,6.54
2024-05-09T00:48:14.336Z,6.50
2024-05-09T00:50:45.310Z,6.52
2024-05-09T00:53:15.520Z,6.54
2024-05-09T00:55:44.254Z,6.51
2024-05-09T00:58:14.922Z,6.48
2024-05-09T01:00:44.465Z,6.46
2024-05-09T01:03:13.514Z,6.45
2024-05-09T01:05:43.207Z,6.42
2024-05-09T01:08:11.701Z,6.38
2024-05-09T01:10:41.723Z,6.31
2024-05-09T01:13:10.851Z,6.21
2024-05-09T01:15:38.061Z,6.15
2024-05-09T01:18:09.435Z,6.09
2024-05-09T01:20:42.059Z,6.04
2024-05-09T01:23:12.263Z,6.04
2024-05-09T01:25:39.979Z,6.04
2024-05-09T01:28:07.176Z,6.02
2024-05-09T01:30:36.829Z,6.03
2024-05-09T01:33:09.849Z,6.01
2024-05-09T01:35:41.236Z,6.01
2024-05-09T01:38:09.974Z,6.03
2024-05-09T01:40:39.841Z,6.02
2024-05-09T01:43:08.818Z,5.96
2024-05-09T01:45:37.215Z,5.95
2024-05-09T01:48:04.823Z,5.94
2024-05-09T01:50:38.523Z,5.93
2024-05-09T01:53:12.673Z,5.89
2024-05-09T01:55:40.643Z,5.84
2024-05-09T01:58:07.684Z,5.78
2024-05-09T02:00:40.099Z,5.71
2024-05-09T02:03:16.068Z,5.68
2024-05-09T02:05:47.282Z,5.63
2024-05-09T02:08:22.052Z,5.61
2024-05-09T02:10:50.476Z,5.57
2024-05-09T02:13:17.650Z,5.51
2024-05-09T02:15:45.160Z,5.46
2024-05-09T02:18:12.614Z,5.43
2024-05-09T02:20:41.332Z,5.39
2024-05-09T02:23:09.425Z,5.34
2024-05-09T02:25:36.853Z,5.33
2024-05-09T02:28:03.769Z,5.29
2024-05-09T02:30:39.280Z,5.25
2024-05-09T02:33:10.948Z,5.24
2024-05-09T02:35:40.416Z,5.29
2024-05-09T02:38:09.332Z,5.26
2024-05-09T02:40:38.967Z,5.32
2024-05-09T02:43:07.876Z,5.34
2024-05-09T02:45:35.530Z,5.32
2024-05-09T02:48:02.769Z,5.31
2024-05-09T02:50:37.210Z,5.30
2024-05-09T02:53:09.839Z,5.25
2024-05-09T02:55:41.305Z,5.20
2024-05-09T02:58:08.522Z,5.12
2024-05-09T03:00:39.805Z,5.09
2024-05-09T03:03:10.977Z,5.07
2024-05-09T03:05:40.796Z,5.03
2024-05-09T03:08:08.049Z,5.01
2024-05-09T03:10:37.816Z,4.98
2024-05-09T03:13:11.908Z,5.00
2024-05-09T03:15:39.888Z,5.03
2024-05-09T03:18:07.242Z,5.02
2024-05-09T03:20:36.211Z,5.01
2024-05-09T03:23:05.383Z,4.98
2024-05-09T03:25:33.563Z,4.99
2024-05-09T03:28:00.502Z,5.01
2024-05-09T03:30:38.833Z,5.06
2024-05-09T03:33:15.354Z,5.05
2024-05-09T03:35:44.134Z,5.04
2024-05-09T03:38:11.048Z,5.03
2024-05-09T03:40:47.900Z,5.00
2024-05-09T03:43:15.763Z,5.03
2024-05-09T03:45:43.762Z,5.02
2024-05-09T03:48:11.039Z,5.04
2024-05-09T03:50:38.637Z,5.07
2024-05-09T03:53:06.044Z,5.14
2024-05-09T03:55:33.297Z,5.19
2024-05-09T03:58:00.217Z,5.24
2024-05-09T04:00:35.506Z,5.31
2024-05-09T04:03:08.234Z,5.37
2024-05-09T04:05:39.698Z,5.49
2024-05-09T04:08:07.452Z,5.57
2024-05-09T04:10:35.448Z,5.61
2024-05-09T04:13:03.294Z,5.70
2024-05-09T04:15:31.023Z,5.78
2024-05-09T04:17:58.118Z,5.90
2024-05-09T04:20:35.982Z,6.00
2024-05-09T04:23:07.516Z,6.07
2024-05-09T04:25:35.541Z,6.14
2024-05-09T04:28:02.470Z,6.19
2024-05-09T04:30:37.445Z,6.31
2024-05-09T04:33:09.409Z,6.38
2024-05-09T04:35:39.040Z,6.48
2024-05-09T04:38:06.292Z,6.55
2024-05-09T04:40:36.399Z,6.66
2024-05-09T04:43:05.846Z,6.77
2024-05-09T04:45:33.323Z,6.89
2024-05-09T04:48:01.024Z,7.04
2024-05-09T04:50:36.317Z,7.15
2024-05-09T04:53:08.205Z,7.30
2024-05-09T04:55:36.848Z,7.46
2024-05-09T04:58:03.769Z,7.65
2024-05-09T05:00:36.416Z,7.80
2024-05-09T05:03:10.811Z,7.95
2024-05-09T05:05:41.269Z,8.08
2024-05-09T05:08:16.895Z,8.25
2024-05-09T05:10:46.052Z,8.40
2024-05-09T05:13:20.005Z,8.58
2024-05-09T05:15:58.363Z,8.75
2024-05-09T05:18:28.578Z,8.91
2024-05-09T05:20:56.849Z,9.07
2024-05-09T05:23:24.387Z,9.24
2024-05-09T05:25:53.362Z,9.36
2024-05-09T05:28:21.177Z,9.58
2024-05-09T05:30:48.373Z,9.80
2024-05-09T05:33:18.389Z,9.98
2024-05-09T05:35:46.070Z,10.22
2024-05-09T05:38:13.051Z,10.42
2024-05-09T05:40:41.050Z,10.61
2024-05-09T05:43:10.263Z,10.81
2024-05-09T05:45:38.228Z,11.02
2024-05-09T05:48:06.871Z,11.21
2024-05-09T05:50:37.245Z,11.37
2024-05-09T05:53:06.475Z,11.56
2024-05-09T05:55:33.969Z,11.70
2024-05-09T05:58:03.853Z,11.92
2024-05-09T06:00:38.209Z,12.06
2024-05-09T06:03:08.212Z,12.25
2024-05-09T06:05:36.969Z,12.39
2024-05-09T06:08:04.309Z,12.54
2024-05-09T06:10:38.017Z,12.67
2024-05-09T06:13:07.840Z,12.82
2024-05-09T06:15:35.052Z,12.96
2024-05-09T06:18:04.636Z,13.08
2024-05-09T06:20:36.395Z,13.20
2024-05-09T06:23:06.345Z,13.32
2024-05-09T06:25:34.817Z,13.49
2024-05-09T06:28:01.978Z,13.67
2024-05-09T06:30:37.611Z,13.84
2024-05-09T06:33:09.237Z,13.99
2024-05-09T06:35:37.482Z,14.11
2024-05-09T06:38:04.905Z,14.21
2024-05-09T06:40:38.183Z,14.33
2024-05-09T06:43:14.332Z,14.48
2024-05-09T06:45:42.072Z,14.59
2024-05-09T06:48:09.856Z,14.68
2024-05-09T06:50:39.384Z,14.84
2024-05-09T06:53:07.997Z,14.97
2024-05-09T06:55:36.419Z,15.14
2024-05-09T06:58:05.897Z,15.24
2024-05-09T07:00:38.920Z,15.29
2024-05-09T07:03:13.659Z,15.45
2024-05-09T07:05:43.380Z,15.54
2024-05-09T07:08:10.471Z,15.72
2024-05-09T07:10:38.143Z,15.82
2024-05-09T07:13:13.225Z,15.88
2024-05-09T07:15:41.555Z,15.97
2024-05-09T07:18:13.238Z,16.12
2024-05-09T07:20:41.344Z,16.14
2024-05-09T07:23:14.892Z,16.10
2024-05-09T07:25:42.459Z,16.23
2024-05-09T07:28:17.544Z,16.37
2024-05-09T07:30:45.237Z,16.57
2024-05-09T07:33:20.011Z,16.66
2024-05-09T07:35:48.681Z,16.80
2024-05-09T07:38:15.649Z,16.94
2024-05-09T07:40:43.141Z,17.06
2024-05-09T07:43:14.207Z,17.20
2024-05-09T07:45:50.689Z,17.23
2024-05-09T07:52:39.065Z,17.36
2024-05-09T07:53:46.975Z,17.48
2024-05-09T07:56:18.278Z,17.58
2024-05-09T07:58:46.079Z,17.71
2024-05-09T08:01:13.384Z,17.80
2024-05-09T08:03:40.363Z,17.83
2024-05-09T08:06:07.858Z,17.89
2024-05-09T08:08:34.614Z,17.86
2024-05-09T08:11:03.018Z,17.95
2024-05-09T08:13:29.853Z,18.08
2024-05-09T08:15:57.063Z,18.16
2024-05-09T08:18:24.048Z,18.18
2024-05-09T08:20:51.370Z,18.23
2024-05-09T08:23:18.273Z,18.30
2024-05-09T08:25:45.437Z,18.36
2024-05-09T08:28:12.908Z,18.38
2024-05-09T08:30:40.314Z,18.45
2024-05-09T08:33:08.036Z,18.50
2024-05-09T08:35:36.143Z,18.50
2024-05-09T08:38:03.859Z,18.53
2024-05-09T08:40:36.294Z,18.59
2024-05-09T08:43:10.995Z,18.67
2024-05-09T08:45:43.593Z,18.62
2024-05-09T08:48:14.144Z,18.52
2024-05-09T08:50:42.512Z,18.61
2024-05-09T08:53:10.007Z,18.69
2024-05-09T08:55:41.525Z,18.54
2024-05-09T08:58:16.200Z,18.49
2024-05-09T09:00:45.191Z,18.45
2024-05-09T09:03:19.236Z,18.48
2024-05-09T09:05:58.465Z,18.54
2024-05-09T09:08:26.423Z,18.50
2024-05-09T09:10:59.244Z,18.65
2024-05-09T09:13:26.725Z,18.75
2024-05-09T09:15:57.837Z,18.88
2024-05-09T09:18:26.430Z,19.05
2024-05-09T09:20:53.911Z,19.24
2024-05-09T09:23:20.665Z,19.46
2024-05-09T09:25:48.125Z,19.56
2024-05-09T09:28:15.373Z,19.76
2024-05-09T09:30:43.523Z,19.84
2024-05-09T09:33:11.262Z,19.87
2024-05-09T09:35:40.529Z,19.80
2024-05-09T09:38:08.364Z,19.76
2024-05-09T09:40:40.635Z,19.88
2024-05-09T09:43:17.598Z,19.89
2024-05-09T09:45:46.432Z,19.87
2024-05-09T09:48:15.443Z,19.96
2024-05-09T09:50:43.232Z,20.11
2024-05-09T09:53:11.402Z,20.30
2024-05-09T09:55:40.208Z,20.45
2024-05-09T09:58:13.469Z,20.57
2024-05-09T10:00:42.211Z,20.78
2024-05-09T10:03:09.403Z,21.03
2024-05-09T10:05:38.322Z,21.15
2024-05-09T10:08:25.890Z,21.16
2024-05-09T10:10:53.364Z,21.21
2024-05-09T10:13:20.401Z,21.37
2024-05-09T10:15:51.870Z,21.56
2024-05-09T10:18:28.093Z,21.54
2024-05-09T10:20:59.594Z,21.72
2024-05-09T10:23:30.810Z,21.81
2024-05-09T10:26:06.323Z,21.92
2024-05-09T10:28:36.023Z,22.08
2024-05-09T10:31:08.376Z,22.30
2024-05-09T10:33:39.961Z,22.37
2024-05-09T10:36:14.482Z,22.53
2024-05-09T10:38:42.856Z,22.63
2024-05-09T10:41:11.117Z,22.68
2024-05-09T10:43:41.670Z,22.97
2024-05-09T10:46:17.188Z,23.35
2024-05-09T10:48:49.624Z,23.72
2024-05-09T10:51:19.553Z,23.92
2024-05-09T10:53:48.328Z,24.13
2024-05-09T10:56:17.205Z,24.36
2024-05-09T10:58:44.596Z,24.54
2024-05-09T11:01:13.470Z,24.78
2024-05-09T11:03:40.987Z,24.96
2024-05-09T11:06:09.887Z,25.10
2024-05-09T11:08:37.808Z,25.13
2024-05-09T11:11:08.081Z,25.22
2024-05-09T11:13:37.908Z,25.44
2024-05-09T11:16:07.230Z,25.64
2024-05-09T11:18:38.084Z,25.91
2024-05-09T11:21:13.775Z,26.33
2024-05-09T11:23:41.439Z,26.38
2024-05-09T11:26:10.725Z,26.89
2024-05-09T11:28:37.819Z,27.53
2024-05-09T11:31:07.715Z,28.31
2024-05-09T11:33:43.730Z,29.01
2024-05-09T11:36:11.215Z,29.59
2024-05-09T11:38:38.089Z,30.17
2024-05-09T11:41:06.188Z,30.67
2024-05-09T11:43:33.555Z,31.25
2024-05-09T11:46:02.660Z,31.97
2024-05-09T11:48:30.116Z,32.32
2024-05-09T11:50:58.605Z,32.61
2024-05-09T11:53:25.627Z,32.88
2024-05-09T11:55:53.300Z,33.25
2024-05-09T11:58:22.913Z,33.46
2024-05-09T12:00:50.569Z,34.05
2024-05-09T12:03:17.577Z,34.44
2024-05-09T12:05:45.387Z,34.93
2024-05-09T12:08:12.706Z,34.97
2024-05-09T12:10:40.094Z,35.39
2024-05-09T12:13:07.679Z,35.88
2024-05-09T12:15:37.915Z,36.06
2024-05-09T12:18:06.594Z,36.24
2024-05-09T12:20:38.239Z,36.47
2024-05-09T12:23:09.484Z,36.46
2024-05-09T12:25:39.198Z,36.69
2024-05-09T12:28:07.314Z,36.83
2024-05-09T12:30:39.702Z,36.77
2024-05-09T12:33:09.628Z,36.65
2024-05-09T12:35:37.192Z,36.83
2024-05-09T12:38:04.535Z,37.12
2024-05-09T12:40:36.640Z,37.26
2024-05-09T12:43:09.582Z,37.86
2024-05-09T12:45:38.115Z,37.88
2024-05-09T12:48:08.355Z,37.97
2024-05-09T12:50:38.953Z,38.03
2024-05-09T12:53:05.961Z,38.05
2024-05-09T12:55:41.283Z,38.14
2024-05-09T12:58:17.165Z,38.70
2024-05-09T13:00:45.245Z,38.99
2024-05-09T13:03:12.774Z,38.48
2024-05-09T13:05:45.139Z,38.01
2024-05-09T13:08:13.761Z,36.12
2024-05-09T13:10:41.441Z,33.98
2024-05-09T13:13:11.793Z,32.23
2024-05-09T13:15:39.372Z,31.10
2024-05-09T13:18:07.090Z,30.08
2024-05-09T13:20:36.100Z,29.06
2024-05-09T13:23:05.797Z,28.18
2024-05-09T13:25:34.923Z,27.45
2024-05-09T13:28:02.946Z,26.72
2024-05-09T13:30:38.809Z,26.15
2024-05-09T13:33:12.873Z,25.70
2024-05-09T13:35:46.635Z,25.27
2024-05-09T13:38:17.215Z,24.75
2024-05-09T13:40:44.963Z,24.34
2024-05-09T13:43:12.111Z,23.95
2024-05-09T13:45:39.631Z,23.66
2024-05-09T13:48:07.364Z,23.39
2024-05-09T13:50:36.609Z,23.17
2024-05-09T13:53:06.573Z,22.98
2024-05-09T13:55:37.274Z,22.67
2024-05-09T13:58:04.160Z,22.47
2024-05-09T14:00:42.187Z,22.39
2024-05-09T14:03:19.740Z,22.26
2024-05-09T14:05:50.143Z,22.15
2024-05-09T14:08:20.124Z,22.08
2024-05-09T14:10:48.853Z,22.04
2024-05-09T14:13:16.320Z,21.99
2024-05-09T14:15:43.848Z,21.91
2024-05-09T14:18:13.516Z,21.87
2024-05-09T14:20:42.704Z,21.86
2024-05-09T14:23:09.881Z,21.85
2024-05-09T14:25:42.026Z,21.70
2024-05-09T14:28:11.186Z,21.67
2024-05-09T14:30:39.319Z,21.65
2024-05-09T14:33:07.713Z,21.66
2024-05-09T14:35:37.370Z,21.60
2024-05-09T14:38:04.846Z,21.49
2024-05-09T14:40:40.515Z,21.51
2024-05-09T14:43:14.897Z,21.50
2024-05-09T14:45:43.620Z,21.51
2024-05-09T14:48:11.968Z,21.56
2024-05-09T14:50:40.741Z,21.49
2024-05-09T14:53:12.895Z,21.36
2024-05-09T14:55:42.158Z,21.24
2024-05-09T14:58:11.127Z,21.14
2024-05-09T15:00:46.111Z,20.83
2024-05-09T15:03:17.163Z,20.72
2024-05-09T15:05:45.273Z,20.78
2024-05-09T15:08:12.319Z,20.77
2024-05-09T15:10:39.752Z,20.83
2024-05-09T15:13:08.740Z,20.75
2024-05-09T15:15:37.322Z,20.69
2024-05-09T15:18:05.566Z,20.69
2024-05-09T15:20:36.196Z,20.77
2024-05-09T15:23:05.354Z,20.80
2024-05-09T15:25:33.867Z,20.84
2024-05-09T15:28:01.182Z,20.91
2024-05-09T15:30:32.050Z,20.93
2024-05-09T15:33:01.374Z,20.87
2024-05-09T15:35:29.330Z,20.88
2024-05-09T15:37:56.685Z,20.83
2024-05-09T15:40:34.776Z,20.78
2024-05-09T15:43:07.133Z,20.67
2024-05-09T15:45:35.175Z,20.57
2024-05-09T15:48:03.310Z,20.42
2024-05-09T15:50:37.644Z,20.30
2024-05-09T15:53:09.174Z,20.26
2024-05-09T15:55:38.098Z,20.14
2024-05-09T15:58:07.162Z,20.01
2024-05-09T16:00:39.457Z,19.96
2024-05-09T16:03:10.099Z,19.93
2024-05-09T16:05:38.312Z,19.92
2024-05-09T16:08:06.146Z,19.90
2024-05-09T16:10:34.785Z,19.85
2024-05-09T16:13:03.212Z,19.79
2024-05-09T16:15:31.189Z,19.74
2024-05-09T16:17:58.242Z,19.69
2024-05-09T16:20:34.337Z,19.64
2024-05-09T16:23:07.601Z,19.54
2024-05-09T16:25:35.000Z,19.43
2024-05-09T16:28:05.766Z,19.35
2024-05-09T16:30:36.394Z,19.30
2024-05-09T16:33:05.125Z,19.30
2024-05-09T16:35:34.602Z,19.26
2024-05-09T16:38:02.946Z,19.27
2024-05-09T16:40:37.420Z,19.25
2024-05-09T16:43:08.309Z,19.24
2024-05-09T16:45:36.752Z,19.24
2024-05-09T16:48:04.179Z,19.25
2024-05-09T16:50:34.638Z,19.30
2024-05-09T16:53:03.984Z,19.26
2024-05-09T16:55:31.756Z,19.12
2024-05-09T16:57:58.824Z,19.05
2024-05-09T17:00:36.174Z,19.03
2024-05-09T17:03:09.903Z,19.06
2024-05-09T17:05:38.098Z,19.07
2024-05-09T17:08:05.758Z,19.03
2024-05-09T17:10:34.973Z,18.94
2024-05-09T17:13:04.261Z,18.80
2024-05-09T17:15:32.904Z,18.65
2024-05-09T17:18:00.688Z,18.57
2024-05-09T17:20:33.235Z,18.52
2024-05-09T17:23:03.525Z,18.44
2024-05-09T17:25:30.739Z,18.24
2024-05-09T17:27:59.588Z,18.07
2024-05-09T17:30:32.557Z,17.94
2024-05-09T17:33:08.410Z,17.92
2024-05-09T17:35:36.831Z,17.83
2024-05-09T17:38:05.401Z,17.70
2024-05-09T17:40:35.714Z,17.54
2024-05-09T17:43:05.560Z,17.43
2024-05-09T17:45:33.766Z,17.39
2024-05-09T17:48:01.154Z,17.31
2024-05-09T17:50:35.194Z,17.16
2024-05-09T17:53:05.537Z,17.06
2024-05-09T17:55:33.194Z,16.98
2024-05-09T17:58:00.616Z,16.85
2024-05-09T18:00:37.228Z,16.77
2024-05-09T18:03:08.381Z,16.69
2024-05-09T18:05:37.230Z,16.59
2024-05-09T18:08:06.110Z,16.48
2024-05-09T18:10:37.461Z,16.37
2024-05-09T18:13:10.363Z,16.23
2024-05-09T18:15:38.429Z,16.09
2024-05-09T18:18:06.325Z,15.94
2024-05-09T18:20:41.786Z,15.79
2024-05-09T18:23:13.988Z,15.64
2024-05-09T18:25:41.873Z,15.46
2024-05-09T18:28:08.960Z,15.31
2024-05-09T18:30:37.367Z,15.16
2024-05-09T18:33:07.058Z,15.05
2024-05-09T18:35:36.510Z,14.95
2024-05-09T18:38:05.059Z,14.84
2024-05-09T18:40:36.004Z,14.72
2024-05-09T18:43:07.245Z,14.58
2024-05-09T18:45:37.761Z,14.45
2024-05-09T18:48:06.455Z,14.26
2024-05-09T18:50:37.950Z,14.18
2024-05-09T18:53:07.765Z,14.05
2024-05-09T18:55:35.103Z,13.87
2024-05-09T18:58:02.460Z,13.72
2024-05-09T19:00:35.657Z,13.62
2024-05-09T19:03:10.545Z,13.55
2024-05-09T19:05:40.747Z,13.40
2024-05-09T19:08:08.633Z,13.27
2024-05-09T19:10:38.724Z,13.19
2024-05-09T19:13:10.176Z,13.08
2024-05-09T19:15:40.477Z,12.94
2024-05-09T19:18:08.160Z,12.82
2024-05-09T19:20:36.856Z,12.79
2024-05-09T19:23:06.179Z,12.74
2024-05-09T19:25:34.399Z,12.64
2024-05-09T19:28:01.571Z,12.58
2024-05-09T19:30:37.286Z,12.53
2024-05-09T19:33:08.415Z,12.53
2024-05-09T19:35:35.968Z,12.52
2024-05-09T19:38:03.244Z,12.46
2024-05-09T19:40:32.923Z,12.41
2024-05-09T19:43:02.866Z,12.34
2024-05-09T19:45:32.856Z,12.32
2024-05-09T19:48:00.329Z,12.26
2024-05-09T19:50:36.885Z,12.17
2024-05-09T19:53:09.759Z,12.06
2024-05-09T19:55:37.287Z,11.96
2024-05-09T19:58:05.670Z,11.89
2024-05-09T20:00:36.525Z,11.81
2024-05-09T20:03:06.124Z,11.75
2024-05-09T20:05:34.003Z,11.68
2024-05-09T20:08:00.989Z,11.68
2024-05-09T20:10:32.533Z,11.65
2024-05-09T20:13:02.272Z,11.57
2024-05-09T20:15:30.153Z,11.53
2024-05-09T20:17:57.213Z,11.48
2024-05-09T20:20:33.424Z,11.42
2024-05-09T20:23:06.300Z,11.39
2024-05-09T20:25:33.579Z,11.37
2024-05-09T20:28:00.667Z,11.32
2024-05-09T20:30:32.402Z,11.31
2024-05-09T20:33:07.060Z,11.31
2024-05-09T20:35:35.806Z,11.29
2024-05-09T20:38:03.718Z,11.23
2024-05-09T20:40:35.636Z,11.11
2024-05-09T20:43:06.633Z,11.00
2024-05-09T20:45:34.762Z,10.91
2024-05-09T20:48:02.219Z,10.88
2024-05-09T20:50:37.220Z,10.85
2024-05-09T20:53:09.845Z,10.79
2024-05-09T20:55:37.451Z,10.70
2024-05-09T20:58:05.117Z,10.65
2024-05-09T21:00:39.862Z,10.62
2024-05-09T21:03:11.390Z,10.62
2024-05-09T21:05:39.501Z,10.55
2024-05-09T21:08:07.276Z,10.50
2024-05-09T21:10:35.871Z,10.45
2024-05-09T21:13:03.737Z,10.39
2024-05-09T21:15:31.846Z,10.35
2024-05-09T21:17:59.094Z,10.33
2024-05-09T21:20:31.730Z,10.28
2024-05-09T21:23:00.769Z,10.24
2024-05-09T21:25:28.251Z,10.18
2024-05-09T21:27:55.500Z,10.14
2024-05-09T21:30:32.398Z,10.09
2024-05-09T21:33:13.176Z,9.99
2024-05-09T21:35:42.887Z,9.91
2024-05-09T21:38:10.084Z,9.83
2024-05-09T21:40:38.530Z,9.77
2024-05-09T21:43:07.183Z,9.71
2024-05-09T21:45:36.253Z,9.66
2024-05-09T21:48:04.572Z,9.59
2024-05-09T21:50:39.079Z,9.54
2024-05-09T21:53:08.441Z,9.50
2024-05-09T21:55:35.870Z,9.48
2024-05-09T21:58:03.419Z,9.45
2024-05-09T22:00:36.598Z,9.40
2024-05-09T22:03:07.538Z,9.40
2024-05-09T22:05:35.997Z,9.37
2024-05-09T22:08:03.185Z,9.37
2024-05-09T22:10:34.697Z,9.36
2024-05-09T22:13:05.331Z,9.33
2024-05-09T22:15:38.478Z,9.34
2024-05-09T22:18:08.052Z,9.27
2024-05-09T22:20:38.713Z,9.24
2024-05-09T22:23:07.774Z,9.18
2024-05-09T22:25:35.938Z,9.17
2024-05-09T22:28:03.453Z,9.14
2024-05-09T22:30:36.098Z,9.10
2024-05-09T22:33:10.835Z,9.07
2024-05-09T22:35:40.214Z,9.05
2024-05-09T22:38:07.332Z,9.01
2024-05-09T22:40:45.206Z,8.98
2024-05-09T22:43:23.885Z,8.94
2024-05-09T22:45:55.603Z,8.90
2024-05-09T22:48:24.131Z,8.85
2024-05-09T22:50:52.070Z,8.81
2024-05-09T22:53:18.985Z,8.78
2024-05-09T22:55:46.198Z,8.75
2024-05-09T22:58:13.123Z,8.70
2024-05-09T23:00:40.534Z,8.63
2024-05-09T23:03:07.488Z,8.57
2024-05-09T23:05:35.020Z,8.50
2024-05-09T23:08:02.769Z,8.48
2024-05-09T23:10:35.810Z,8.46
2024-05-09T23:13:06.180Z,8.41
2024-05-09T23:15:33.810Z,8.38
2024-05-09T23:18:00.892Z,8.31
2024-05-09T23:20:36.242Z,8.29
2024-05-09T23:23:06.902Z,8.25
2024-05-09T23:25:34.621Z,8.20
2024-05-09T23:28:01.679Z,8.17
2024-05-09T23:30:36.822Z,8.14
2024-05-09T23:33:07.008Z,8.12
2024-05-09T23:35:34.431Z,8.08
2024-05-09T23:38:01.268Z,8.04
2024-05-09T23:40:37.687Z,8.03
2024-05-09T23:43:08.243Z,7.98
2024-05-09T23:45:36.099Z,7.94
2024-05-09T23:48:03.582Z,7.91
2024-05-09T23:50:35.547Z,7.87
2024-05-09T23:53:05.836Z,7.84
2024-05-09T23:55:33.297Z,7.80
2024-05-09T23:58:00.790Z,7.77
